createdAt,value
2023-08-08T00:01:06.916Z,2.90
2023-08-08T00:03:35.673Z,2.60
2023-08-08T00:06:02.996Z,2.10
2023-08-08T00:08:30.330Z,2.90
2023-08-08T00:10:57.691Z,2.92
2023-08-08T00:13:24.985Z,3.10
2023-08-08T00:15:52.357Z,2.70
2023-08-08T00:18:19.704Z,3.40
2023-08-08T00:20:47.032Z,2.40
2023-08-08T00:23:14.379Z,3.45
2023-08-08T00:25:42.076Z,3.20
2023-08-08T00:28:09.471Z,3.45
2023-08-08T00:30:36.798Z,2.63
2023-08-08T00:33:05.184Z,2.97
2023-08-08T00:35:33.649Z,2.88
2023-08-08T00:38:00.908Z,2.80
2023-08-08T00:40:28.359Z,2.83
2023-08-08T00:42:55.661Z,3.30
2023-08-08T00:45:23.002Z,3.45
2023-08-08T00:47:50.802Z,2.92
2023-08-08T00:50:19.168Z,3.28
2023-08-08T00:52:46.639Z,3.60
2023-08-08T00:55:15.761Z,3.60
2023-08-08T00:57:43.920Z,3.15
2023-08-08T01:00:11.691Z,3.28
2023-08-08T01:02:39.337Z,2.60
2023-08-08T01:05:07.283Z,3.17
2023-08-08T01:07:37.595Z,3.37
2023-08-08T01:10:08.757Z,2.90
2023-08-08T01:12:41.943Z,2.63
2023-08-08T01:15:11.616Z,3.55
2023-08-08T01:17:39.118Z,3.20
2023-08-08T01:20:07.138Z,2.57
2023-08-08T01:22:38.424Z,3.28
2023-08-08T01:25:06.139Z,3.17
2023-08-08T01:27:33.444Z,3.33
2023-08-08T01:30:00.827Z,3.75
2023-08-08T01:32:28.208Z,3.10
2023-08-08T01:34:55.624Z,3.05
2023-08-08T01:37:26.630Z,3.30
2023-08-08T01:39:55.091Z,3.38
2023-08-08T01:42:23.665Z,3.33
2023-08-08T01:44:51.110Z,3.37
2023-08-08T01:47:18.483Z,2.72
2023-08-08T01:49:45.752Z,3.60
2023-08-08T01:52:13.096Z,4.15
2023-08-08T01:54:43.400Z,3.70
2023-08-08T01:57:10.853Z,3.27
2023-08-08T01:59:38.131Z,3.15
2023-08-08T02:02:05.751Z,3.55
2023-08-08T02:04:33.140Z,3.65
2023-08-08T02:07:01.269Z,3.08
2023-08-08T02:09:28.825Z,3.10
2023-08-08T02:11:56.737Z,3.63
2023-08-08T02:14:24.331Z,3.65
2023-08-08T02:16:51.653Z,3.70
2023-08-08T02:19:19.026Z,3.80
2023-08-08T02:21:46.428Z,3.70
2023-08-08T02:24:13.798Z,3.33
2023-08-08T02:26:41.188Z,3.13
2023-08-08T02:29:09.780Z,3.53
2023-08-08T02:31:37.218Z,3.33
2023-08-08T02:34:04.532Z,2.90
2023-08-08T02:36:31.927Z,3.35
2023-08-08T02:38:59.209Z,3.15
2023-08-08T02:41:26.548Z,3.45
2023-08-08T02:43:53.812Z,3.30
2023-08-08T02:46:21.259Z,3.40
2023-08-08T02:48:48.715Z,3.50
2023-08-08T02:51:17.160Z,3.10
2023-08-08T02:53:44.627Z,2.88
2023-08-08T02:56:11.985Z,2.83
2023-08-08T02:58:42.258Z,3.40
2023-08-08T03:01:09.670Z,3.17
2023-08-08T03:03:38.280Z,3.08
2023-08-08T03:06:05.794Z,3.20
2023-08-08T03:08:33.138Z,2.88
2023-08-08T03:11:00.984Z,3.07
2023-08-08T03:13:29.300Z,2.97
2023-08-08T03:15:58.038Z,3.13
2023-08-08T03:18:27.027Z,3.25
2023-08-08T03:20:54.866Z,3.80
2023-08-08T03:23:24.426Z,2.90
2023-08-08T03:25:53.007Z,2.80
2023-08-08T03:28:20.532Z,2.67
2023-08-08T03:30:47.838Z,3.42
2023-08-08T03:33:15.124Z,2.53
2023-08-08T03:35:42.710Z,2.87
2023-08-08T03:38:09.992Z,2.75
2023-08-08T03:40:37.517Z,2.40
2023-08-08T03:43:05.817Z,2.40
2023-08-08T03:45:33.161Z,2.58
2023-08-08T03:48:00.526Z,1.90
2023-08-08T03:50:27.964Z,3.00
2023-08-08T03:52:55.293Z,2.67
2023-08-08T03:55:22.585Z,2.63
2023-08-08T03:57:49.970Z,2.80
2023-08-08T04:00:18.150Z,2.83
2023-08-08T04:02:45.489Z,2.53
2023-08-08T04:05:13.419Z,2.55
2023-08-08T04:07:40.842Z,2.10
2023-08-08T04:10:08.592Z,2.83
2023-08-08T04:12:35.924Z,2.00
2023-08-08T04:15:03.265Z,2.78
2023-08-08T04:17:30.547Z,2.78
2023-08-08T04:19:58.046Z,2.55
2023-08-08T04:22:25.341Z,2.35
2023-08-08T04:24:52.749Z,2.27
2023-08-08T04:27:20.061Z,2.67
2023-08-08T04:29:47.536Z,2.50
2023-08-08T04:32:14.861Z,2.90
2023-08-08T04:34:42.188Z,2.70
2023-08-08T04:37:09.561Z,3.13
2023-08-08T04:39:36.914Z,3.47
2023-08-08T04:42:04.604Z,2.88
2023-08-08T04:44:32.024Z,3.20
2023-08-08T04:46:59.563Z,3.30
2023-08-08T04:49:26.811Z,3.10
2023-08-08T04:51:55.327Z,3.33
2023-08-08T04:54:22.615Z,2.60
2023-08-08T04:56:49.969Z,3.53
2023-08-08T04:59:17.390Z,2.88
2023-08-08T05:01:44.731Z,2.57
2023-08-08T05:04:12.080Z,2.50
2023-08-08T05:06:39.415Z,2.50
2023-08-08T05:09:07.165Z,2.60
2023-08-08T05:11:34.410Z,2.40
2023-08-08T05:14:01.730Z,2.17
2023-08-08T05:16:29.086Z,2.70
2023-08-08T05:18:56.441Z,2.35
2023-08-08T05:21:23.818Z,2.20
2023-08-08T05:23:51.125Z,2.20
2023-08-08T05:26:18.854Z,2.10
2023-08-08T05:28:46.258Z,2.33
2023-08-08T05:31:13.608Z,1.92
2023-08-08T05:33:40.973Z,1.90
2023-08-08T05:36:08.257Z,1.67
2023-08-08T05:38:35.541Z,1.93
2023-08-08T05:41:02.844Z,1.60
2023-08-08T05:43:31.113Z,2.00
2023-08-08T05:45:58.587Z,1.48
2023-08-08T05:48:26.264Z,1.85
2023-08-08T05:50:53.747Z,1.70
2023-08-08T05:53:21.355Z,1.92
2023-08-08T05:55:48.656Z,1.60
2023-08-08T05:58:15.993Z,1.67
2023-08-08T06:00:43.853Z,1.48
2023-08-08T06:03:11.256Z,1.30
2023-08-08T06:05:38.545Z,1.20
2023-08-08T06:08:08.237Z,1.10
2023-08-08T06:10:35.827Z,1.40
2023-08-08T06:13:03.510Z,1.50
2023-08-08T06:15:30.798Z,1.40
2023-08-08T06:17:59.282Z,1.30
2023-08-08T06:20:26.649Z,1.70
2023-08-08T06:22:54.053Z,1.33
2023-08-08T06:25:21.350Z,1.65
2023-08-08T06:27:50.229Z,1.30
2023-08-08T06:30:17.921Z,1.42
2023-08-08T06:32:45.327Z,1.20
2023-08-08T06:35:13.641Z,1.60
2023-08-08T06:37:41.044Z,1.13
2023-08-08T06:40:09.143Z,1.30
2023-08-08T06:42:36.465Z,1.40
2023-08-08T06:45:03.851Z,1.30
2023-08-08T06:47:31.175Z,1.20
2023-08-08T06:49:58.512Z,1.40
2023-08-08T06:52:26.109Z,1.20
2023-08-08T06:54:53.373Z,0.90
2023-08-08T06:57:20.737Z,0.93
2023-08-08T06:59:51.652Z,1.02
2023-08-08T07:02:20.251Z,0.90
2023-08-08T07:04:47.580Z,0.93
2023-08-08T07:07:14.944Z,1.40
2023-08-08T07:09:42.949Z,1.08
2023-08-08T07:12:10.498Z,0.90
2023-08-08T07:14:38.008Z,1.10
2023-08-08T07:17:08.159Z,1.13
2023-08-08T07:19:37.533Z,0.93
2023-08-08T07:22:04.957Z,1.00
2023-08-08T07:24:32.316Z,0.90
2023-08-08T07:27:00.797Z,1.10
2023-08-08T07:29:28.505Z,0.70
2023-08-08T07:31:56.202Z,1.00
2023-08-08T07:34:23.775Z,1.20
2023-08-08T07:36:51.033Z,1.30
2023-08-08T07:39:18.359Z,0.90
2023-08-08T07:41:45.652Z,0.83
2023-08-08T07:44:13.037Z,0.80
2023-08-08T07:46:40.435Z,1.05
2023-08-08T07:49:07.891Z,0.70
2023-08-08T07:51:35.198Z,0.80
2023-08-08T07:54:02.623Z,0.90
2023-08-08T07:56:30.007Z,0.70
2023-08-08T07:58:57.373Z,1.00
2023-08-08T08:01:24.757Z,1.00
2023-08-08T08:03:52.119Z,1.02
2023-08-08T08:06:19.483Z,1.13
2023-08-08T08:08:46.835Z,1.08
2023-08-08T08:11:14.345Z,0.90
2023-08-08T08:13:41.735Z,0.70
2023-08-08T08:16:09.222Z,0.70
2023-08-08T08:18:36.626Z,0.97
2023-08-08T08:21:03.988Z,0.70
2023-08-08T08:23:32.908Z,0.60
2023-08-08T08:26:00.464Z,1.17
2023-08-08T08:28:28.186Z,1.08
2023-08-08T08:30:55.503Z,1.17
2023-08-08T08:33:22.813Z,1.10
2023-08-08T08:35:50.173Z,1.10
2023-08-08T08:38:17.476Z,1.00
2023-08-08T08:40:46.811Z,1.17
2023-08-08T08:43:14.563Z,0.70
2023-08-08T08:45:43.414Z,0.70
2023-08-08T08:48:14.229Z,0.75
2023-08-08T08:50:41.689Z,0.70
2023-08-08T08:53:09.162Z,0.80
2023-08-08T08:55:36.515Z,0.60
2023-08-08T08:58:03.882Z,0.90
2023-08-08T09:00:32.232Z,0.90
2023-08-08T09:03:00.309Z,0.93
2023-08-08T09:05:28.249Z,1.02
2023-08-08T09:07:55.568Z,1.20
2023-08-08T09:10:23.073Z,1.02
2023-08-08T09:12:50.959Z,0.90
2023-08-08T09:15:18.417Z,0.98
2023-08-08T09:17:49.244Z,1.13
2023-08-08T09:20:18.513Z,0.60
2023-08-08T09:22:45.920Z,0.73
2023-08-08T09:25:13.323Z,0.75
2023-08-08T09:27:42.761Z,0.82
2023-08-08T09:30:11.980Z,0.70
2023-08-08T09:35:10.544Z,1.13
2023-08-08T09:37:37.973Z,0.77
2023-08-08T09:40:09.436Z,0.80
2023-08-08T09:42:37.455Z,0.90
2023-08-08T09:45:04.999Z,0.70
2023-08-08T09:47:32.504Z,0.90
2023-08-08T09:50:06.071Z,0.77
2023-08-08T09:52:35.570Z,0.95
2023-08-08T09:55:03.444Z,0.80
2023-08-08T09:57:30.864Z,0.90
2023-08-08T09:59:58.526Z,1.35
2023-08-08T10:02:26.253Z,0.70
2023-08-08T10:04:56.039Z,0.90
2023-08-08T10:07:24.493Z,0.77
2023-08-08T10:09:51.996Z,0.97
2023-08-08T10:12:19.415Z,0.80
2023-08-08T10:14:47.638Z,0.77
2023-08-08T10:17:16.197Z,1.05
2023-08-08T10:19:52.146Z,0.90
2023-08-08T10:22:22.359Z,1.10
2023-08-08T10:24:49.680Z,1.00
2023-08-08T10:27:28.690Z,0.90
2023-08-08T10:29:55.972Z,1.00
2023-08-08T10:32:26.902Z,0.98
2023-08-08T10:34:58.817Z,1.10
2023-08-08T10:37:26.979Z,1.00
2023-08-08T10:39:54.782Z,0.80
2023-08-08T10:42:23.952Z,0.90
2023-08-08T10:44:55.405Z,1.05
2023-08-08T10:47:43.431Z,0.70
2023-08-08T10:50:17.624Z,0.98
2023-08-08T10:52:53.912Z,0.95
2023-08-08T10:55:26.733Z,0.93
2023-08-08T10:58:01.604Z,0.70
2023-08-08T11:00:30.695Z,1.17
2023-08-08T11:02:59.085Z,0.60
2023-08-08T11:05:27.505Z,0.90
2023-08-08T11:07:55.726Z,1.33
2023-08-08T11:10:23.700Z,1.00
2023-08-08T11:12:55.404Z,0.57
2023-08-08T11:15:22.913Z,1.05
2023-08-08T11:17:50.926Z,0.90
2023-08-08T11:20:18.361Z,0.63
2023-08-08T11:22:45.685Z,0.80
2023-08-08T11:25:16.137Z,0.70
2023-08-08T11:27:50.659Z,1.00
2023-08-08T11:30:18.339Z,0.68
2023-08-08T11:32:45.685Z,0.80
2023-08-08T11:35:13.053Z,0.90
2023-08-08T11:37:40.614Z,0.60
2023-08-08T11:40:09.801Z,0.90
2023-08-08T11:42:37.225Z,0.70
2023-08-08T11:45:05.659Z,0.80
2023-08-08T11:47:37.074Z,0.80
2023-08-08T11:50:05.913Z,0.70
2023-08-08T11:52:33.370Z,0.60
2023-08-08T11:55:01.739Z,0.68
2023-08-08T11:57:29.448Z,0.70
2023-08-08T11:59:56.717Z,0.90
2023-08-08T12:02:24.695Z,0.70
2023-08-08T12:04:52.036Z,0.88
2023-08-08T12:07:20.442Z,0.80
2023-08-08T12:09:50.951Z,0.90
2023-08-08T12:12:20.479Z,0.85
2023-08-08T12:14:51.658Z,0.83
2023-08-08T12:17:24.828Z,0.80
2023-08-08T12:19:52.328Z,0.98
2023-08-08T12:22:19.714Z,0.60
2023-08-08T12:24:47.001Z,0.80
2023-08-08T12:27:15.631Z,0.97
2023-08-08T12:29:43.075Z,0.90
2023-08-08T12:32:10.504Z,0.80
2023-08-08T12:34:37.857Z,1.10
2023-08-08T12:37:05.166Z,1.10
2023-08-08T12:39:32.503Z,0.77
2023-08-08T12:41:59.820Z,0.88
2023-08-08T12:44:27.098Z,0.88
2023-08-08T12:46:54.760Z,1.10
2023-08-08T12:49:22.123Z,0.82
2023-08-08T12:51:49.505Z,0.77
2023-08-08T12:54:16.831Z,0.55
2023-08-08T12:56:44.141Z,0.80
2023-08-08T12:59:11.901Z,0.88
2023-08-08T13:01:39.259Z,0.63
2023-08-08T13:04:18.856Z,0.90
2023-08-08T13:06:48.090Z,0.80
2023-08-08T13:09:16.569Z,0.60
2023-08-08T13:11:43.988Z,1.10
2023-08-08T13:14:11.328Z,1.05
2023-08-08T13:16:38.652Z,0.87
2023-08-08T13:19:06.419Z,1.00
2023-08-08T13:21:33.735Z,0.80
2023-08-08T13:24:01.064Z,1.20
2023-08-08T13:26:28.969Z,0.90
2023-08-08T13:28:56.324Z,1.30
2023-08-08T13:31:23.918Z,0.95
2023-08-08T13:33:51.200Z,1.00
2023-08-08T13:36:18.535Z,1.40
2023-08-08T13:38:45.773Z,0.95
2023-08-08T13:41:13.116Z,0.90
2023-08-08T13:43:40.323Z,1.23
2023-08-08T13:46:10.788Z,1.00
2023-08-08T13:48:38.343Z,0.60
2023-08-08T13:51:05.692Z,1.05
2023-08-08T13:53:33.118Z,1.00
2023-08-08T13:56:00.464Z,1.02
2023-08-08T13:58:27.949Z,0.85
2023-08-08T14:00:56.637Z,0.75
2023-08-08T14:03:24.229Z,0.80
2023-08-08T14:05:55.127Z,1.10
2023-08-08T14:08:22.544Z,1.15
2023-08-08T14:10:49.873Z,1.00
2023-08-08T14:13:17.246Z,1.00
2023-08-08T14:15:44.656Z,0.98
2023-08-08T14:18:12.060Z,1.07
2023-08-08T14:20:39.507Z,1.20
2023-08-08T14:23:06.836Z,1.08
2023-08-08T14:25:34.643Z,1.40
2023-08-08T14:28:02.267Z,1.30
2023-08-08T14:30:29.613Z,1.23
2023-08-08T14:32:56.966Z,0.93
2023-08-08T14:35:24.440Z,1.52
2023-08-08T14:37:51.791Z,1.02
2023-08-08T14:40:19.168Z,1.52
2023-08-08T14:42:46.586Z,0.80
2023-08-08T14:45:13.863Z,0.82
2023-08-08T14:47:41.196Z,1.00
2023-08-08T14:50:09.342Z,1.20
2023-08-08T14:52:36.662Z,1.05
2023-08-08T14:55:04.158Z,0.97
2023-08-08T14:57:31.537Z,1.20
2023-08-08T15:00:01.607Z,1.35
2023-08-08T15:02:28.977Z,1.27
2023-08-08T15:04:56.327Z,0.98
2023-08-08T15:07:24.367Z,1.27
2023-08-08T15:09:52.443Z,1.30
2023-08-08T15:12:19.795Z,1.20
2023-08-08T15:14:47.155Z,1.30
2023-08-08T15:17:14.456Z,1.35
2023-08-08T15:19:41.784Z,1.20
2023-08-08T15:22:09.121Z,1.30
2023-08-08T15:24:37.661Z,1.10
2023-08-08T15:27:05.834Z,1.35
2023-08-08T15:29:33.175Z,1.10
2023-08-08T15:32:00.485Z,1.07
2023-08-08T15:34:27.755Z,1.73
2023-08-08T15:36:55.503Z,1.50
2023-08-08T15:39:24.121Z,1.02
2023-08-08T15:41:51.399Z,1.40
2023-08-08T15:44:18.737Z,1.70
2023-08-08T15:46:46.025Z,1.30
2023-08-08T15:49:13.631Z,1.10
2023-08-08T15:51:42.345Z,1.42
2023-08-08T15:54:10.095Z,1.25
2023-08-08T15:56:39.263Z,1.30
2023-08-08T15:59:07.181Z,1.25
2023-08-08T16:01:34.908Z,1.15
2023-08-08T16:04:02.298Z,1.40
2023-08-08T16:06:30.202Z,1.60
2023-08-08T16:08:57.521Z,1.30
2023-08-08T16:11:24.943Z,1.40
2023-08-08T16:13:52.337Z,1.35
2023-08-08T16:16:19.855Z,1.50
2023-08-08T16:18:47.717Z,1.25
2023-08-08T16:21:15.085Z,1.30
2023-08-08T16:23:42.412Z,1.40
2023-08-08T16:26:09.750Z,1.38
2023-08-08T16:28:37.538Z,1.48
2023-08-08T16:31:05.325Z,1.48
2023-08-08T16:33:32.778Z,1.50
2023-08-08T16:36:00.176Z,1.63
2023-08-08T16:38:27.516Z,1.27
2023-08-08T16:40:54.809Z,1.42
2023-08-08T16:43:22.083Z,1.45
2023-08-08T16:45:49.490Z,1.40
2023-08-08T16:48:16.871Z,1.40
2023-08-08T16:50:44.356Z,1.13
2023-08-08T16:53:11.657Z,1.20
2023-08-08T16:55:39.038Z,1.30
2023-08-08T16:58:06.402Z,1.27
2023-08-08T17:00:33.808Z,1.35
2023-08-08T17:03:01.151Z,1.50
2023-08-08T17:05:28.655Z,1.40
2023-08-08T17:07:56.009Z,1.63
2023-08-08T17:10:23.292Z,1.53
2023-08-08T17:12:50.614Z,1.77
2023-08-08T17:15:17.961Z,1.45
2023-08-08T17:17:45.320Z,1.70
2023-08-08T17:20:12.983Z,1.85
2023-08-08T17:22:40.349Z,2.10
2023-08-08T17:25:07.770Z,2.20
2023-08-08T17:27:36.704Z,1.38
2023-08-08T17:30:09.686Z,2.05
2023-08-08T17:32:37.650Z,1.65
2023-08-08T17:35:05.380Z,2.03
2023-08-08T17:37:32.809Z,1.90
2023-08-08T17:40:00.182Z,1.95
2023-08-08T17:42:27.765Z,2.25
2023-08-08T17:44:55.080Z,1.50
2023-08-08T17:47:22.414Z,2.20
2023-08-08T17:49:50.045Z,2.97
2023-08-08T17:52:17.365Z,2.05
2023-08-08T17:54:44.691Z,2.00
2023-08-08T17:57:11.996Z,2.30
2023-08-08T17:59:39.472Z,2.33
2023-08-08T18:02:07.206Z,2.30
2023-08-08T18:04:34.691Z,2.20
2023-08-08T18:07:02.486Z,2.35
2023-08-08T18:09:30.861Z,1.90
2023-08-08T18:11:58.852Z,2.37
2023-08-08T18:14:26.563Z,1.83
2023-08-08T18:16:53.971Z,2.10
2023-08-08T18:19:23.172Z,1.90
2023-08-08T18:21:50.677Z,1.90
2023-08-08T18:24:18.025Z,1.97
2023-08-08T18:26:45.414Z,1.80
2023-08-08T18:29:12.755Z,2.00
2023-08-08T18:31:40.095Z,2.30
2023-08-08T18:34:07.483Z,1.92
2023-08-08T18:36:35.868Z,2.23
2023-08-08T18:39:03.824Z,1.90
2023-08-08T18:41:31.141Z,2.20
2023-08-08T18:43:58.504Z,2.00
2023-08-08T18:46:25.871Z,2.13
2023-08-08T18:48:53.214Z,1.80
2023-08-08T18:51:20.559Z,2.33
2023-08-08T18:53:47.839Z,1.73
2023-08-08T18:56:15.339Z,2.15
2023-08-08T18:58:42.792Z,2.40
2023-08-08T19:01:10.182Z,2.83
2023-08-08T19:03:37.648Z,2.50
2023-08-08T19:06:05.082Z,1.92
2023-08-08T19:08:32.360Z,2.65
2023-08-08T19:10:59.741Z,2.33
2023-08-08T19:13:27.102Z,2.47
2023-08-08T19:15:54.441Z,2.40
2023-08-08T19:18:23.511Z,2.20
2023-08-08T19:20:50.862Z,2.55
2023-08-08T19:23:18.242Z,2.30
2023-08-08T19:25:45.587Z,2.60
2023-08-08T19:28:12.915Z,2.50
2023-08-08T19:30:40.268Z,2.20
2023-08-08T19:33:07.622Z,2.50
2023-08-08T19:35:36.462Z,2.28
2023-08-08T19:38:03.968Z,2.00
2023-08-08T19:40:33.203Z,1.90
2023-08-08T19:43:00.485Z,1.92
2023-08-08T19:45:27.940Z,2.00
2023-08-08T19:47:55.336Z,1.58
2023-08-08T19:50:22.801Z,1.60
2023-08-08T19:52:50.123Z,1.88
2023-08-08T19:55:17.450Z,1.83
2023-08-08T19:57:44.775Z,1.70
2023-08-08T20:00:12.684Z,2.10
2023-08-08T20:02:40.859Z,1.70
2023-08-08T20:05:09.218Z,1.88
2023-08-08T20:07:36.539Z,1.55
2023-08-08T20:10:05.375Z,1.77
2023-08-08T20:12:32.681Z,2.05
2023-08-08T20:14:59.990Z,1.90
2023-08-08T20:17:27.316Z,1.67
2023-08-08T20:19:54.627Z,1.80
2023-08-08T20:22:23.232Z,1.95
2023-08-08T20:24:50.963Z,2.42
2023-08-08T20:27:18.423Z,1.80
2023-08-08T20:29:45.722Z,1.98
2023-08-08T20:32:13.045Z,1.77
2023-08-08T20:34:40.592Z,2.22
2023-08-08T20:37:07.918Z,1.92
2023-08-08T20:39:35.585Z,2.40
2023-08-08T20:42:03.353Z,2.17
2023-08-08T20:44:30.836Z,3.33
2023-08-08T20:46:58.165Z,2.78
2023-08-08T20:49:25.509Z,2.45
2023-08-08T20:51:52.824Z,2.90
2023-08-08T20:54:20.860Z,3.17
2023-08-08T20:56:56.770Z,3.17
2023-08-08T20:59:24.500Z,3.13
2023-08-08T21:01:51.775Z,3.30
2023-08-08T21:04:19.180Z,3.23
2023-08-08T21:06:46.481Z,3.80
2023-08-08T21:09:13.816Z,3.80
2023-08-08T21:11:41.161Z,3.72
2023-08-08T21:14:08.488Z,3.70
2023-08-08T21:16:35.774Z,3.90
2023-08-08T21:19:03.129Z,3.38
2023-08-08T21:21:30.427Z,3.38
2023-08-08T21:23:57.757Z,3.95
2023-08-08T21:26:34.055Z,3.50
2023-08-08T21:29:06.232Z,3.80
2023-08-08T21:31:33.984Z,3.83
2023-08-08T21:34:01.328Z,3.70
2023-08-08T21:36:28.651Z,4.30
2023-08-08T21:38:55.976Z,3.70
2023-08-08T21:41:23.261Z,4.73
2023-08-08T21:43:50.903Z,5.13
2023-08-08T21:46:18.245Z,4.90
2023-08-08T21:48:45.672Z,4.70
2023-08-08T21:51:14.039Z,4.90
2023-08-08T21:53:41.651Z,5.57
2023-08-08T21:56:08.965Z,5.43
2023-08-08T21:58:36.355Z,5.32
2023-08-08T22:01:03.919Z,6.15
2023-08-08T22:03:31.247Z,6.10
2023-08-08T22:05:58.641Z,6.53
2023-08-08T22:08:25.918Z,6.57
2023-08-08T22:10:53.235Z,6.10
2023-08-08T22:13:22.009Z,7.10
2023-08-08T22:15:49.465Z,6.78
2023-08-08T22:18:17.557Z,7.47
2023-08-08T22:20:45.534Z,7.00
2023-08-08T22:23:19.796Z,6.95
2023-08-08T22:25:49.252Z,6.60
2023-08-08T22:28:16.746Z,6.70
2023-08-08T22:30:44.138Z,7.07
2023-08-08T22:33:11.439Z,6.97
2023-08-08T22:35:38.749Z,7.45
2023-08-08T22:38:06.123Z,7.07
2023-08-08T22:40:33.465Z,7.75
2023-08-08T22:43:00.785Z,7.80
2023-08-08T22:45:31.093Z,8.02
2023-08-08T22:47:58.463Z,7.95
2023-08-08T22:50:25.890Z,8.23
2023-08-08T22:52:53.213Z,8.15
2023-08-08T22:55:21.217Z,9.00
2023-08-08T22:57:48.591Z,8.75
2023-08-08T23:00:16.689Z,9.07
2023-08-08T23:02:44.310Z,9.32
2023-08-08T23:05:11.847Z,10.15
2023-08-08T23:07:39.574Z,9.80
2023-08-08T23:10:07.179Z,10.00
2023-08-08T23:12:34.459Z,10.57
2023-08-08T23:15:01.738Z,10.70
2023-08-08T23:17:29.502Z,11.10
2023-08-08T23:19:56.824Z,10.90
2023-08-08T23:22:24.187Z,11.60
2023-08-08T23:24:51.560Z,10.43
2023-08-08T23:27:18.891Z,11.23
2023-08-08T23:29:46.185Z,10.77
2023-08-08T23:32:13.459Z,10.07
2023-08-08T23:34:40.763Z,11.82
2023-08-08T23:37:14.268Z,11.95
2023-08-08T23:39:47.719Z,10.98
2023-08-08T23:42:16.027Z,12.52
2023-08-08T23:44:44.276Z,11.73
2023-08-08T23:47:12.685Z,12.75
2023-08-08T23:49:40.163Z,12.70
2023-08-08T23:52:07.996Z,11.93
2023-08-08T23:54:35.657Z,11.30
2023-08-08T23:57:03.248Z,11.80
2023-08-08T23:59:30.852Z,12.00
